Time;durP1;ratioP1;P1;durP2;ratioP2;P2;SDS_P1;SDS_P2;PMS_P1;PMS_P2;Temp;Humidity;BMP_temperature;BMP_pressure;BME280_temperature;BME280_humidity;BME280_pressure;Samples;Min_cycle;Max_cycle;Signal;HPM_P1;HPM_P2
2023/04/21 00:01:38;;;;;;;23.00;13.00;;;;;;;-128.00;-1.00;-1.00;18927;293;7505757;-34
2023/04/21 00:04:05;;;;;;;22.00;11.00;;;;;;;-128.00;-1.00;-1.00;18888;294;7506499;-32
2023/04/21 00:06:31;;;;;;;24.50;10.90;;;;;;;-128.00;-1.00;-1.00;18497;294;7506260;-30
2023/04/21 00:08:57;;;;;;;22.50;7.80;;;;;;;-128.00;-1.00;-1.00;18486;305;7506214;-34
2023/04/21 00:11:23;;;;;;;22.00;10.00;;;;;;;-128.00;-1.00;-1.00;18903;294;7504645;-33
2023/04/21 00:13:49;;;;;;;22.80;11.20;;;;;;;-128.00;-1.00;-1.00;18890;293;7504831;-32
2023/04/21 00:16:16;;;;;;;32.30;15.10;;;;;;;-128.00;-1.00;-1.00;18901;293;7505151;-33
2023/04/21 00:18:42;;;;;;;17.80;10.10;;;;;;;-128.00;-1.00;-1.00;18904;294;7504583;-31
2023/04/21 00:21:08;;;;;;;16.00;9.30;;;;;;;-128.00;-1.00;-1.00;18900;294;7504667;-33
2023/04/21 00:23:34;;;;;;;22.90;9.10;;;;;;;-128.00;-1.00;-1.00;18875;294;7504439;-30
2023/04/21 00:26:01;;;;;;;25.10;13.90;;;;;;;-128.00;-1.00;-1.00;18861;294;7504227;-31
2023/04/21 00:28:28;;;;;;;22.20;10.00;;;;;;;-128.00;-1.00;-1.00;18884;294;7504389;-35
2023/04/21 00:30:54;;;;;;;14.10;7.30;;;;;;;-128.00;-1.00;-1.00;18505;294;7504961;-34
2023/04/21 00:33:19;;;;;;;12.70;7.60;;;;;;;-128.00;-1.00;-1.00;18513;294;7504455;-34
2023/04/21 00:35:45;;;;;;;12.50;7.50;;;;;;;-128.00;-1.00;-1.00;18482;293;7504857;-30
2023/04/21 00:38:11;;;;;;;10.20;6.90;;;;;;;-128.00;-1.00;-1.00;18491;294;7506025;-32
2023/04/21 00:40:37;;;;;;;15.50;9.20;;;;;;;-128.00;-1.00;-1.00;18874;296;7505375;-34
2023/04/21 00:43:07;;;;;;;31.40;16.00;;;;;;;-128.00;-1.00;-1.00;18901;295;7505370;-33
2023/04/21 00:45:32;;;;;;;23.30;13.80;;;;;;;-128.00;-1.00;-1.00;18479;294;7505051;-34
2023/04/21 00:47:58;;;;;;;19.20;11.30;;;;;;;-128.00;-1.00;-1.00;18885;294;7505210;-31
2023/04/21 00:50:25;;;;;;;18.00;10.60;;;;;;;-128.00;-1.00;-1.00;18921;294;7505216;-33
2023/04/21 00:52:51;;;;;;;27.50;12.60;;;;;;;-128.00;-1.00;-1.00;18862;294;7504347;-30
2023/04/21 00:55:17;;;;;;;23.50;12.00;;;;;;;-128.00;-1.00;-1.00;18864;294;7504920;-34
2023/04/21 00:57:43;;;;;;;43.40;19.70;;;;;;;-128.00;-1.00;-1.00;18876;294;7504431;-30
2023/04/21 01:00:10;;;;;;;24.80;15.10;;;;;;;-128.00;-1.00;-1.00;18884;294;7504762;-30
2023/04/21 01:02:38;;;;;;;32.10;18.70;;;;;;;-128.00;-1.00;-1.00;18482;294;7504408;-33
2023/04/21 01:05:06;;;;;;;26.20;14.80;;;;;;;-128.00;-1.00;-1.00;18541;294;7504378;-33
2023/04/21 01:07:32;;;;;;;24.00;13.20;;;;;;;-128.00;-1.00;-1.00;18449;294;7504403;-34
2023/04/21 01:09:58;;;;;;;18.20;9.90;;;;;;;-128.00;-1.00;-1.00;18492;294;7504265;-34
2023/04/21 01:12:24;;;;;;;17.70;8.10;;;;;;;-128.00;-1.00;-1.00;18480;319;7504451;-30
2023/04/21 01:14:50;;;;;;;13.10;8.60;;;;;;;-128.00;-1.00;-1.00;18886;294;7505257;-30
2023/04/21 01:17:17;;;;;;;21.60;9.60;;;;;;;-128.00;-1.00;-1.00;18926;295;7505155;-30
2023/04/21 01:19:43;;;;;;;14.40;8.20;;;;;;;-128.00;-1.00;-1.00;18461;311;7506023;-34
2023/04/21 01:22:14;;;;;;;11.00;8.30;;;;;;;-128.00;-1.00;-1.00;18480;305;7504887;-33
2023/04/21 01:24:41;;;;;;;12.00;8.10;;;;;;;-128.00;-1.00;-1.00;18517;283;7504853;-33
2023/04/21 01:27:10;;;;;;;10.50;7.20;;;;;;;-128.00;-1.00;-1.00;18524;294;7506205;-31
2023/04/21 01:29:35;;;;;;;16.40;8.50;;;;;;;-128.00;-1.00;-1.00;18478;334;7505325;-32
2023/04/21 01:32:06;;;;;;;14.20;9.70;;;;;;;-128.00;-1.00;-1.00;18482;334;7504554;-31
2023/04/21 01:34:32;;;;;;;13.30;8.60;;;;;;;-128.00;-1.00;-1.00;18515;294;7506347;-32
2023/04/21 01:36:58;;;;;;;28.00;13.70;;;;;;;-128.00;-1.00;-1.00;18493;317;7505965;-35
2023/04/21 01:39:23;;;;;;;16.10;8.60;;;;;;;-128.00;-1.00;-1.00;18489;294;7504376;-31
2023/04/21 01:41:49;;;;;;;14.80;7.50;;;;;;;-128.00;-1.00;-1.00;18437;296;7505298;-35
2023/04/21 01:44:14;;;;;;;16.50;8.80;;;;;;;-128.00;-1.00;-1.00;18475;294;7506120;-35
2023/04/21 01:46:41;;;;;;;18.80;9.00;;;;;;;-128.00;-1.00;-1.00;18872;317;7504456;-35
2023/04/21 01:49:07;;;;;;;15.50;9.10;;;;;;;-128.00;-1.00;-1.00;18894;294;7505106;-35
2023/04/21 01:51:33;;;;;;;21.00;10.00;;;;;;;-128.00;-1.00;-1.00;18876;287;7504264;-35
2023/04/21 01:53:59;;;;;;;15.60;8.70;;;;;;;-128.00;-1.00;-1.00;18920;294;7504593;-33
2023/04/21 01:56:25;;;;;;;16.10;10.10;;;;;;;-128.00;-1.00;-1.00;18895;338;7504421;-35
2023/04/21 01:58:52;;;;;;;19.00;9.80;;;;;;;-128.00;-1.00;-1.00;18936;334;7504863;-31
2023/04/21 02:01:17;;;;;;;14.10;9.60;;;;;;;-128.00;-1.00;-1.00;18495;346;7504316;-32
2023/04/21 02:03:44;;;;;;;13.50;8.00;;;;;;;-128.00;-1.00;-1.00;18880;318;7503991;-33
2023/04/21 02:06:10;;;;;;;16.00;9.70;;;;;;;-128.00;-1.00;-1.00;18477;287;7506229;-34
2023/04/21 02:08:37;;;;;;;17.10;10.50;;;;;;;-128.00;-1.00;-1.00;18501;294;7505722;-34
2023/04/21 02:11:03;;;;;;;21.40;11.40;;;;;;;-128.00;-1.00;-1.00;18904;338;7504297;-34
2023/04/21 02:13:29;;;;;;;17.00;9.80;;;;;;;-128.00;-1.00;-1.00;18881;293;7505128;-30
2023/04/21 02:15:55;;;;;;;20.00;10.20;;;;;;;-128.00;-1.00;-1.00;18917;294;7504283;-30
2023/04/21 02:18:22;;;;;;;20.20;10.00;;;;;;;-128.00;-1.00;-1.00;18855;312;7504422;-33
2023/04/21 02:20:48;;;;;;;22.00;9.60;;;;;;;-128.00;-1.00;-1.00;18891;338;7504451;-33
2023/04/21 02:23:14;;;;;;;25.60;11.90;;;;;;;-128.00;-1.00;-1.00;18919;294;7504718;-30
2023/04/21 02:25:41;;;;;;;20.80;11.40;;;;;;;-128.00;-1.00;-1.00;18890;294;7504611;-31
2023/04/21 02:28:07;;;;;;;13.40;8.30;;;;;;;-128.00;-1.00;-1.00;18925;294;7506800;-34
2023/04/21 02:30:34;;;;;;;13.50;7.90;;;;;;;-128.00;-1.00;-1.00;18875;296;7504403;-34
2023/04/21 02:33:00;;;;;;;16.70;10.20;;;;;;;-128.00;-1.00;-1.00;18877;287;7505319;-31
2023/04/21 02:35:26;;;;;;;20.70;11.30;;;;;;;-128.00;-1.00;-1.00;18937;294;7505336;-30
2023/04/21 02:37:52;;;;;;;22.00;12.20;;;;;;;-128.00;-1.00;-1.00;18860;294;7504606;-30
2023/04/21 02:40:20;;;;;;;19.80;12.60;;;;;;;-128.00;-1.00;-1.00;18898;294;7504716;-31
2023/04/21 02:42:45;;;;;;;14.70;8.50;;;;;;;-128.00;-1.00;-1.00;18517;294;7505869;-29
2023/04/21 02:45:11;;;;;;;16.10;9.10;;;;;;;-128.00;-1.00;-1.00;18470;295;7505810;-29
2023/04/21 02:47:36;;;;;;;23.30;9.60;;;;;;;-128.00;-1.00;-1.00;18516;294;7505803;-29
2023/04/21 02:50:03;;;;;;;33.30;13.10;;;;;;;-128.00;-1.00;-1.00;18501;334;7504792;-33
2023/04/21 02:52:29;;;;;;;13.10;7.80;;;;;;;-128.00;-1.00;-1.00;18469;294;7504537;-29
2023/04/21 02:54:54;;;;;;;9.70;6.20;;;;;;;-128.00;-1.00;-1.00;18499;294;7505771;-33
2023/04/21 02:57:20;;;;;;;21.30;11.90;;;;;;;-128.00;-1.00;-1.00;18921;294;7504357;-31
2023/04/21 02:59:46;;;;;;;23.80;10.90;;;;;;;-128.00;-1.00;-1.00;18893;342;7504602;-33
2023/04/21 03:02:13;;;;;;;16.80;9.90;;;;;;;-128.00;-1.00;-1.00;18910;294;7505144;-30
2023/04/21 03:04:39;;;;;;;24.60;12.00;;;;;;;-128.00;-1.00;-1.00;18874;294;7505391;-30
2023/04/21 03:07:10;;;;;;;12.00;7.20;;;;;;;-128.00;-1.00;-1.00;18469;294;7504656;-33
2023/04/21 03:09:36;;;;;;;13.90;7.80;;;;;;;-128.00;-1.00;-1.00;18478;334;7506566;-30
2023/04/21 03:12:02;;;;;;;15.60;8.60;;;;;;;-128.00;-1.00;-1.00;18487;294;7506038;-30
2023/04/21 03:14:27;;;;;;;17.90;9.20;;;;;;;-128.00;-1.00;-1.00;18486;294;7504616;-34
2023/04/21 03:16:54;;;;;;;18.20;10.30;;;;;;;-128.00;-1.00;-1.00;18899;294;7506557;-30
2023/04/21 03:19:20;;;;;;;20.70;10.20;;;;;;;-128.00;-1.00;-1.00;18869;294;7504702;-30
2023/04/21 03:21:46;;;;;;;18.70;10.10;;;;;;;-128.00;-1.00;-1.00;18892;294;7504584;-34
2023/04/21 03:24:12;;;;;;;19.30;10.30;;;;;;;-128.00;-1.00;-1.00;18869;303;7505246;-30
2023/04/21 03:26:42;;;;;;;17.60;10.30;;;;;;;-128.00;-1.00;-1.00;18914;334;7505150;-31
2023/04/21 03:29:07;;;;;;;19.40;11.30;;;;;;;-128.00;-1.00;-1.00;18516;346;7504552;-34
2023/04/21 03:31:33;;;;;;;15.50;9.10;;;;;;;-128.00;-1.00;-1.00;18477;338;7507091;-31
2023/04/21 03:33:59;;;;;;;23.10;11.60;;;;;;;-128.00;-1.00;-1.00;18841;295;7504907;-34
2023/04/21 03:36:25;;;;;;;19.70;10.90;;;;;;;-128.00;-1.00;-1.00;18871;294;7504305;-34
2023/04/21 03:38:51;;;;;;;18.10;10.40;;;;;;;-128.00;-1.00;-1.00;18887;294;7504667;-30
2023/04/21 03:41:18;;;;;;;34.70;11.90;;;;;;;-128.00;-1.00;-1.00;18877;294;7505205;-33
2023/04/21 03:43:44;;;;;;;24.20;12.80;;;;;;;-128.00;-1.00;-1.00;18859;338;7504809;-30
2023/04/21 03:46:18;;;;;;;27.70;12.90;;;;;;;-128.00;-1.00;-1.00;18849;294;7504391;-33
2023/04/21 03:48:44;;;;;;;20.10;11.50;;;;;;;-128.00;-1.00;-1.00;18502;306;7505917;-34
2023/04/21 03:51:10;;;;;;;19.20;9.70;;;;;;;-128.00;-1.00;-1.00;18459;295;7505939;-35
2023/04/21 03:53:36;;;;;;;12.10;9.00;;;;;;;-128.00;-1.00;-1.00;18491;294;7504775;-30
2023/04/21 03:56:02;;;;;;;18.70;10.70;;;;;;;-128.00;-1.00;-1.00;18869;295;7504681;-30
2023/04/21 03:58:28;;;;;;;21.20;11.50;;;;;;;-128.00;-1.00;-1.00;18865;297;7504504;-30
2023/04/21 04:00:54;;;;;;;22.90;12.30;;;;;;;-128.00;-1.00;-1.00;18904;294;7504846;-30
2023/04/21 04:03:21;;;;;;;16.50;11.30;;;;;;;-128.00;-1.00;-1.00;18918;318;7504382;-33
2023/04/21 04:05:47;;;;;;;20.20;12.30;;;;;;;-128.00;-1.00;-1.00;18885;334;7504436;-30
2023/04/21 04:08:13;;;;;;;12.70;8.90;;;;;;;-128.00;-1.00;-1.00;18892;295;7504829;-34
2023/04/21 04:10:39;;;;;;;19.50;12.10;;;;;;;-128.00;-1.00;-1.00;18903;334;7504667;-34
2023/04/21 04:13:05;;;;;;;22.80;11.50;;;;;;;-128.00;-1.00;-1.00;18889;294;7504808;-33
2023/04/21 04:15:31;;;;;;;18.70;10.80;;;;;;;-128.00;-1.00;-1.00;18904;338;7504173;-34
2023/04/21 04:17:57;;;;;;;16.40;10.30;;;;;;;-128.00;-1.00;-1.00;18890;294;7504813;-34
2023/04/21 04:20:24;;;;;;;20.80;9.10;;;;;;;-128.00;-1.00;-1.00;18870;288;7504498;-34
2023/04/21 04:22:50;;;;;;;10.90;7.50;;;;;;;-128.00;-1.00;-1.00;18878;294;7504281;-30
2023/04/21 04:25:16;;;;;;;17.50;8.50;;;;;;;-128.00;-1.00;-1.00;18877;294;7504759;-30
2023/04/21 04:27:48;;;;;;;7.90;6.20;;;;;;;-128.00;-1.00;-1.00;18496;294;7505146;-30
2023/04/21 04:30:14;;;;;;;9.70;6.30;;;;;;;-128.00;-1.00;-1.00;18511;294;7504600;-32
2023/04/21 04:32:40;;;;;;;13.20;8.40;;;;;;;-128.00;-1.00;-1.00;18484;295;7505011;-31
2023/04/21 04:35:06;;;;;;;21.60;10.70;;;;;;;-128.00;-1.00;-1.00;18523;294;7504805;-31
2023/04/21 04:37:35;;;;;;;12.30;8.70;;;;;;;-128.00;-1.00;-1.00;18487;294;7504746;-34
2023/04/21 05:19:53;;;;;;;17.40;9.30;;;;;;;-100.98;19.20;19929.54;98507;293;1544437;-34
2023/04/21 05:22:19;;;;;;;25.80;8.20;;;;;;;-128.00;-1.00;-1.00;97628;294;1002577;-33
2023/04/21 05:24:47;;;;;;;12.90;8.50;;;;;;;-128.00;-1.00;-1.00;95274;293;3002925;-30
2023/04/21 05:27:14;;;;;;;15.80;10.90;;;;;;;-128.00;-1.00;-1.00;34351;294;7504904;-31
2023/04/21 05:29:41;;;;;;;27.70;13.70;;;;;;;-128.00;-1.00;-1.00;18926;293;7505211;-32
2023/04/21 05:32:08;;;;;;;23.40;13.20;;;;;;;-128.00;-1.00;-1.00;18917;293;7504578;-32
2023/04/21 05:34:34;;;;;;;24.80;12.50;;;;;;;-128.00;-1.00;-1.00;18492;294;7504917;-34
2023/04/21 05:36:59;;;;;;;39.30;12.30;;;;;;;-128.00;-1.00;-1.00;18498;293;7506523;-33
2023/04/21 05:39:28;;;;;;;28.30;13.80;;;;;;;-128.00;-1.00;-1.00;18523;294;7504340;-36
2023/04/21 05:41:54;;;;;;;23.60;15.20;;;;;;;-128.00;-1.00;-1.00;18499;294;7504697;-35
2023/04/21 05:44:19;;;;;;;35.00;17.00;;;;;;;-128.00;-1.00;-1.00;18490;294;7504101;-32
2023/04/21 05:46:45;;;;;;;58.80;27.50;;;;;;;-128.00;-1.00;-1.00;18462;294;7504771;-31
2023/04/21 05:49:11;;;;;;;51.60;24.30;;;;;;;-128.00;-1.00;-1.00;18907;293;7504238;-35
2023/04/21 05:51:37;;;;;;;47.80;22.00;;;;;;;-128.00;-1.00;-1.00;18919;293;7504881;-35
2023/04/21 05:54:04;;;;;;;55.20;26.30;;;;;;;-128.00;-1.00;-1.00;18922;294;7506087;-32
2023/04/21 05:56:29;;;;;;;55.30;24.30;;;;;;;-128.00;-1.00;-1.00;18485;294;7505344;-32
2023/04/21 05:58:56;;;;;;;33.90;16.70;;;;;;;-128.00;-1.00;-1.00;18898;318;7504577;-35
2023/04/21 06:01:22;;;;;;;35.50;18.90;;;;;;;-128.00;-1.00;-1.00;18936;293;7504399;-31
2023/04/21 06:03:48;;;;;;;29.90;14.90;;;;;;;-128.00;-1.00;-1.00;18883;298;7504916;-32
2023/04/21 06:06:14;;;;;;;26.20;12.90;;;;;;;-128.00;-1.00;-1.00;18531;293;7504725;-33
2023/04/21 06:08:40;;;;;;;25.20;12.20;;;;;;;-128.00;-1.00;-1.00;18524;293;7504972;-34
2023/04/21 06:11:06;;;;;;;23.80;11.20;;;;;;;-128.00;-1.00;-1.00;18504;294;7505805;-31
2023/04/21 06:13:31;;;;;;;19.10;9.50;;;;;;;-128.00;-1.00;-1.00;18512;305;7506048;-34
2023/04/21 06:15:57;;;;;;;23.40;13.90;;;;;;;-128.00;-1.00;-1.00;18854;347;7504961;-31
2023/04/21 06:18:26;;;;;;;17.90;12.90;;;;;;;-128.00;-1.00;-1.00;18878;345;7504591;-30
2023/04/21 06:20:52;;;;;;;17.60;11.10;;;;;;;-128.00;-1.00;-1.00;18491;293;7506375;-34
2023/04/21 06:23:18;;;;;;;24.40;13.50;;;;;;;-128.00;-1.00;-1.00;18483;293;7505296;-33
2023/04/21 06:25:43;;;;;;;21.40;13.00;;;;;;;-128.00;-1.00;-1.00;18470;294;7504660;-34
2023/04/21 06:28:10;;;;;;;22.70;14.10;;;;;;;-128.00;-1.00;-1.00;18877;294;7504717;-34
2023/04/21 06:30:36;;;;;;;19.10;13.50;;;;;;;-128.00;-1.00;-1.00;18887;294;7505856;-31
2023/04/21 06:33:03;;;;;;;20.20;14.50;;;;;;;-128.00;-1.00;-1.00;18891;294;7504636;-35
2023/04/21 06:35:29;;;;;;;21.60;11.60;;;;;;;-128.00;-1.00;-1.00;18481;296;7504924;-34
2023/04/21 06:37:56;;;;;;;19.90;10.60;;;;;;;-128.00;-1.00;-1.00;18476;293;7504167;-34
2023/04/21 06:40:21;;;;;;;14.20;9.70;;;;;;;-128.00;-1.00;-1.00;18498;293;7505675;-34
2023/04/21 06:42:47;;;;;;;21.70;10.90;;;;;;;-128.00;-1.00;-1.00;18476;293;7506790;-31
2023/04/21 06:45:13;;;;;;;19.90;12.10;;;;;;;-128.00;-1.00;-1.00;18888;293;7504797;-30
2023/04/21 06:47:39;;;;;;;22.50;12.20;;;;;;;-128.00;-1.00;-1.00;18888;294;7504945;-34
2023/04/21 06:50:07;;;;;;;18.80;12.20;;;;;;;-128.00;-1.00;-1.00;18889;294;7504431;-31
2023/04/21 06:52:33;;;;;;;26.80;12.00;;;;;;;-128.00;-1.00;-1.00;18478;294;7507016;-31
2023/04/21 06:54:58;;;;;;;23.60;12.90;;;;;;;-128.00;-1.00;-1.00;18496;293;7504618;-35
2023/04/21 06:57:25;;;;;;;21.40;11.60;;;;;;;-128.00;-1.00;-1.00;18867;286;7504347;-32
2023/04/21 06:59:51;;;;;;;27.30;14.60;;;;;;;-128.00;-1.00;-1.00;18880;293;7505393;-32
2023/04/21 07:02:17;;;;;;;21.30;12.10;;;;;;;-128.00;-1.00;-1.00;18928;293;7504921;-32
2023/04/21 07:04:43;;;;;;;18.30;10.70;;;;;;;-128.00;-1.00;-1.00;18879;294;7505001;-35
2023/04/21 07:07:09;;;;;;;17.60;9.90;;;;;;;-128.00;-1.00;-1.00;18904;293;7505415;-35
2023/04/21 07:09:35;;;;;;;24.70;12.00;;;;;;;-128.00;-1.00;-1.00;18891;294;7504647;-31
2023/04/21 07:12:02;;;;;;;16.30;11.40;;;;;;;-128.00;-1.00;-1.00;18888;294;7504349;-34
2023/04/21 07:14:28;;;;;;;21.70;11.40;;;;;;;-128.00;-1.00;-1.00;18917;294;7505041;-32
2023/04/21 07:16:56;;;;;;;16.50;11.30;;;;;;;-128.00;-1.00;-1.00;18879;294;7505095;-31
2023/04/21 07:19:22;;;;;;;17.10;8.80;;;;;;;-128.00;-1.00;-1.00;18467;317;7504357;-35
2023/04/21 07:21:47;;;;;;;15.60;11.60;;;;;;;-128.00;-1.00;-1.00;18473;295;7504662;-35
2023/04/21 07:24:14;;;;;;;26.20;10.20;;;;;;;-128.00;-1.00;-1.00;18501;293;7504961;-31
2023/04/21 07:26:39;;;;;;;10.80;8.60;;;;;;;-128.00;-1.00;-1.00;18509;293;7506786;-31
2023/04/21 07:29:05;;;;;;;14.20;8.30;;;;;;;-128.00;-1.00;-1.00;18469;302;7505082;-31
2023/04/21 07:31:31;;;;;;;12.80;9.30;;;;;;;-128.00;-1.00;-1.00;18898;293;7504663;-37
2023/04/21 07:33:57;;;;;;;19.40;9.50;;;;;;;-128.00;-1.00;-1.00;18903;293;7504635;-36
2023/04/21 07:36:25;;;;;;;15.30;10.90;;;;;;;-128.00;-1.00;-1.00;18887;293;7504648;-35
2023/04/21 07:38:50;;;;;;;6.80;6.20;;;;;;;-128.00;-1.00;-1.00;18489;294;7504338;-34
2023/04/21 07:41:16;;;;;;;17.30;10.70;;;;;;;-128.00;-1.00;-1.00;18873;294;7505264;-33
2023/04/21 07:43:42;;;;;;;19.00;11.60;;;;;;;-128.00;-1.00;-1.00;18897;295;7504617;-32
2023/04/21 07:46:09;;;;;;;19.50;12.10;;;;;;;-128.00;-1.00;-1.00;18911;293;7504600;-35
2023/04/21 07:48:35;;;;;;;16.50;10.80;;;;;;;-128.00;-1.00;-1.00;18903;293;7504383;-32
2023/04/21 07:51:02;;;;;;;22.20;10.90;;;;;;;-128.00;-1.00;-1.00;18905;294;7504676;-36
2023/04/21 07:53:27;;;;;;;14.00;9.90;;;;;;;-128.00;-1.00;-1.00;18501;345;7505143;-32
2023/04/21 07:55:53;;;;;;;14.00;11.70;;;;;;;-128.00;-1.00;-1.00;18510;294;7506326;-32
2023/04/21 07:58:20;;;;;;;13.60;8.10;;;;;;;-128.00;-1.00;-1.00;18491;294;7504215;-36
2023/04/21 08:00:45;;;;;;;11.80;9.50;;;;;;;-128.00;-1.00;-1.00;18484;293;7505109;-31
2023/04/21 08:03:11;;;;;;;14.50;9.80;;;;;;;-128.00;-1.00;-1.00;18483;293;7507577;-32
2023/04/21 08:05:37;;;;;;;13.00;9.10;;;;;;;-128.00;-1.00;-1.00;18490;294;7505901;-32
2023/04/21 08:08:03;;;;;;;14.90;7.60;;;;;;;-128.00;-1.00;-1.00;18484;293;7504570;-31
2023/04/21 08:10:29;;;;;;;16.00;10.50;;;;;;;-128.00;-1.00;-1.00;18494;293;7505681;-35
2023/04/21 08:12:54;;;;;;;14.60;9.00;;;;;;;-128.00;-1.00;-1.00;18494;293;7505626;-35
2023/04/21 08:15:20;;;;;;;11.90;7.00;;;;;;;-128.00;-1.00;-1.00;18485;293;7504753;-35
2023/04/21 08:17:46;;;;;;;18.60;9.40;;;;;;;-128.00;-1.00;-1.00;18480;293;7505856;-35
2023/04/21 08:20:12;;;;;;;24.00;16.70;;;;;;;-128.00;-1.00;-1.00;18456;294;7504786;-31
2023/04/21 08:22:37;;;;;;;14.30;9.00;;;;;;;-128.00;-1.00;-1.00;18477;294;7504587;-35
2023/04/21 08:25:04;;;;;;;13.40;9.80;;;;;;;-128.00;-1.00;-1.00;18493;293;7505826;-32
2023/04/21 08:27:30;;;;;;;20.40;14.10;;;;;;;-128.00;-1.00;-1.00;18476;294;7504842;-32
2023/04/21 08:29:56;;;;;;;12.00;9.10;;;;;;;-128.00;-1.00;-1.00;18474;293;7505129;-32
2023/04/21 08:32:23;;;;;;;11.80;8.80;;;;;;;-128.00;-1.00;-1.00;18503;293;7504403;-35
2023/04/21 08:34:50;;;;;;;14.40;8.90;;;;;;;-128.00;-1.00;-1.00;18502;294;7504506;-32
2023/04/21 08:37:17;;;;;;;8.00;6.90;;;;;;;-128.00;-1.00;-1.00;18461;345;7506492;-35
2023/04/21 08:39:43;;;;;;;8.80;7.50;;;;;;;-128.00;-1.00;-1.00;18511;293;7506133;-31
2023/04/21 08:42:09;;;;;;;8.90;8.10;;;;;;;-128.00;-1.00;-1.00;18504;293;7504676;-36
2023/04/21 08:44:35;;;;;;;9.00;7.70;;;;;;;-128.00;-1.00;-1.00;18496;293;7504833;-35
2023/04/21 08:47:01;;;;;;;9.00;7.60;;;;;;;-128.00;-1.00;-1.00;18502;294;7504326;-32
2023/04/21 08:49:28;;;;;;;8.40;7.00;;;;;;;-128.00;-1.00;-1.00;18533;294;7504396;-35
2023/04/21 08:51:53;;;;;;;10.60;8.00;;;;;;;-128.00;-1.00;-1.00;18485;293;7504670;-35
2023/04/21 08:54:20;;;;;;;14.70;7.70;;;;;;;-128.00;-1.00;-1.00;18895;293;7504933;-32
2023/04/21 08:56:47;;;;;;;17.00;6.90;;;;;;;-128.00;-1.00;-1.00;18521;293;7506028;-32
2023/04/21 08:59:12;;;;;;;9.80;7.80;;;;;;;-128.00;-1.00;-1.00;18480;338;7505037;-35
2023/04/21 09:02:02;;;;;;;16.10;9.10;;;;;;;-128.00;-1.00;-1.00;18493;293;7505792;-35
2023/04/21 09:04:28;;;;;;;10.60;7.40;;;;;;;-128.00;-1.00;-1.00;18511;293;7506397;-32
2023/04/21 09:06:54;;;;;;;12.30;9.50;;;;;;;-128.00;-1.00;-1.00;18478;294;7506125;-32
2023/04/21 09:09:20;;;;;;;10.60;8.60;;;;;;;-128.00;-1.00;-1.00;18481;294;7504699;-32
2023/04/21 09:11:55;;;;;;;7.30;5.90;;;;;;;-128.00;-1.00;-1.00;18500;293;7504726;-35
2023/04/21 09:14:21;;;;;;;7.10;4.60;;;;;;;-128.00;-1.00;-1.00;18481;305;7504268;-32
2023/04/21 09:16:58;;;;;;;11.20;5.10;;;;;;;-128.00;-1.00;-1.00;18492;294;7505353;-35
2023/04/21 09:19:29;;;;;;;11.90;7.00;;;;;;;-128.00;-1.00;-1.00;18504;293;7504358;-36
2023/04/21 09:21:55;;;;;;;7.60;6.80;;;;;;;-128.00;-1.00;-1.00;18497;294;7504674;-36
2023/04/21 09:24:20;;;;;;;6.70;5.30;;;;;;;-128.00;-1.00;-1.00;18475;294;7506400;-34
2023/04/21 09:26:50;;;;;;;16.70;8.40;;;;;;;-128.00;-1.00;-1.00;18472;294;7506451;-36
2023/04/21 09:29:16;;;;;;;7.10;4.60;;;;;;;-128.00;-1.00;-1.00;18506;293;7506321;-36
2023/04/21 09:31:43;;;;;;;9.70;6.10;;;;;;;-128.00;-1.00;-1.00;18881;294;7506321;-36
2023/04/21 09:34:23;;;;;;;10.00;4.70;;;;;;;-128.00;-1.00;-1.00;18467;293;7505965;-36
2023/04/21 09:37:01;;;;;;;8.60;4.30;;;;;;;-128.00;-1.00;-1.00;18526;293;7506274;-32
2023/04/21 09:39:31;;;;;;;5.60;4.50;;;;;;;-128.00;-1.00;-1.00;18527;294;7504575;-32
2023/04/21 09:41:57;;;;;;;4.50;4.10;;;;;;;-128.00;-1.00;-1.00;18502;293;7504616;-36
2023/04/21 09:44:24;;;;;;;5.40;4.90;;;;;;;-128.00;-1.00;-1.00;18481;294;7504456;-32
2023/04/21 09:46:52;;;;;;;5.10;4.50;;;;;;;-128.00;-1.00;-1.00;18481;294;7504984;-35
2023/04/21 09:49:17;;;;;;;6.30;4.50;;;;;;;-128.00;-1.00;-1.00;18502;293;7505014;-32
2023/04/21 09:51:43;;;;;;;14.30;4.70;;;;;;;-128.00;-1.00;-1.00;18471;294;7504609;-36
2023/04/21 09:54:16;;;;;;;6.10;5.50;;;;;;;-128.00;-1.00;-1.00;18483;293;7504427;-32
2023/04/21 09:56:41;;;;;;;4.70;4.30;;;;;;;-128.00;-1.00;-1.00;18472;294;7504215;-36
2023/04/21 09:59:07;;;;;;;6.00;3.60;;;;;;;-128.00;-1.00;-1.00;18513;294;7504611;-31
2023/04/21 10:01:34;;;;;;;5.70;4.90;;;;;;;-128.00;-1.00;-1.00;18876;294;7505321;-32
2023/04/21 10:04:00;;;;;;;6.60;6.00;;;;;;;-128.00;-1.00;-1.00;18470;286;7506776;-32
2023/04/21 10:06:27;;;;;;;6.90;5.40;;;;;;;-128.00;-1.00;-1.00;18510;293;7505811;-32
2023/04/21 10:08:55;;;;;;;11.90;5.30;;;;;;;-128.00;-1.00;-1.00;18501;293;7504814;-35
2023/04/21 10:11:24;;;;;;;;;;;;;;;-128.00;-1.00;-1.00;18502;293;7504189;-35
2023/04/21 10:13:50;;;;;;;3.00;2.80;;;;;;;-128.00;-1.00;-1.00;18487;294;7504029;-35
2023/04/21 10:16:16;;;;;;;4.30;3.90;;;;;;;-128.00;-1.00;-1.00;18505;309;7504750;-34
2023/04/21 10:18:43;;;;;;;7.70;3.60;;;;;;;-128.00;-1.00;-1.00;18503;293;7506120;-32
2023/04/21 10:21:10;;;;;;;4.50;3.30;;;;;;;-128.00;-1.00;-1.00;18483;294;7505860;-31
2023/04/21 10:23:38;;;;;;;12.20;4.90;;;;;;;-128.00;-1.00;-1.00;18478;293;7504915;-31
2023/04/21 10:26:24;;;;;;;5.40;3.60;;;;;;;-128.00;-1.00;-1.00;18486;285;7505124;-35
2023/04/21 10:29:05;;;;;;;7.40;6.00;;;;;;;-128.00;-1.00;-1.00;18487;294;7506676;-35
2023/04/21 10:31:50;;;;;;;4.90;4.50;;;;;;;-128.00;-1.00;-1.00;18455;294;7506438;-35
2023/04/21 10:34:16;;;;;;;4.60;4.20;;;;;;;-128.00;-1.00;-1.00;18443;295;7504845;-31
2023/04/21 10:37:07;;;;;;;7.80;5.50;;;;;;;-128.00;-1.00;-1.00;18466;297;7504834;-31
2023/04/21 10:39:41;;;;;;;8.00;4.70;;;;;;;-128.00;-1.00;-1.00;18503;294;7504012;-37
2023/04/21 10:42:28;;;;;;;7.20;4.80;;;;;;;-128.00;-1.00;-1.00;18500;294;7505481;-31
2023/04/21 10:45:04;;;;;;;7.80;4.70;;;;;;;-128.00;-1.00;-1.00;18492;293;7504616;-31
2023/04/21 10:47:35;;;;;;;10.30;4.60;;;;;;;-128.00;-1.00;-1.00;18493;293;7504327;-35
2023/04/21 10:50:15;;;;;;;8.00;4.40;;;;;;;-128.00;-1.00;-1.00;18510;294;7504645;-35
2023/04/21 10:52:45;;;;;;;10.70;4.30;;;;;;;-128.00;-1.00;-1.00;18491;294;7506222;-35
2023/04/21 10:55:12;;;;;;;6.40;4.10;;;;;;;-128.00;-1.00;-1.00;18495;293;7504445;-31
2023/04/21 10:57:40;;;;;;;5.40;4.90;;;;;;;-128.00;-1.00;-1.00;18486;294;7505861;-35
2023/04/21 11:00:07;;;;;;;4.10;3.50;;;;;;;-128.00;-1.00;-1.00;18513;294;7506496;-31
2023/04/21 11:02:34;;;;;;;11.70;4.60;;;;;;;-128.00;-1.00;-1.00;18499;286;7506016;-35
2023/04/21 11:05:00;;;;;;;5.30;4.60;;;;;;;-128.00;-1.00;-1.00;18491;294;7506045;-35
2023/04/21 11:07:26;;;;;;;5.40;4.60;;;;;;;-128.00;-1.00;-1.00;18483;285;7505324;-31
2023/04/21 11:49:10;;;;;;;3.60;3.10;;;;;;;-98.42;5.98;19902.70;98410;294;1543889;-35
2023/04/21 11:51:41;;;;;;;4.00;3.60;;;;;;;-128.00;-1.00;-1.00;97472;294;1002882;-35
2023/04/21 11:54:08;;;;;;;6.10;3.60;;;;;;;-128.00;-1.00;-1.00;97835;283;1002770;-32
2023/04/21 11:56:38;;;;;;;3.80;2.70;;;;;;;-128.00;-1.00;-1.00;97926;294;1002612;-36
2023/04/21 11:59:10;;;;;;;13.30;4.10;;;;;;;-128.00;-1.00;-1.00;97955;294;1003087;-31
2023/04/21 12:01:49;;;;;;;3.60;3.10;;;;;;;-128.00;-1.00;-1.00;97885;294;1002784;-29
2023/04/21 12:04:22;;;;;;;5.30;3.20;;;;;;;-128.00;-1.00;-1.00;97842;294;1002839;-34
2023/04/21 12:07:00;;;;;;;7.80;4.00;;;;;;;-128.00;-1.00;-1.00;97889;294;1002730;-37
2023/04/21 12:09:26;;;;;;;7.80;3.40;;;;;;;-128.00;-1.00;-1.00;97973;294;1003304;-31
2023/04/21 12:11:54;;;;;;;5.00;3.60;;;;;;;-128.00;-1.00;-1.00;97923;294;1003605;-35
2023/04/21 12:14:21;;;;;;;3.40;2.90;;;;;;;-128.00;-1.00;-1.00;98122;294;1004000;-34
2023/04/21 12:16:58;;;;;;;3.60;2.70;;;;;;;-128.00;-1.00;-1.00;97877;294;1003751;-31
2023/04/21 12:19:34;;;;;;;2.40;2.00;;;;;;;-128.00;-1.00;-1.00;97843;294;1004458;-31
2023/04/21 12:22:00;;;;;;;3.90;3.30;;;;;;;-128.00;-1.00;-1.00;97994;294;1003050;-34
2023/04/21 12:24:26;;;;;;;4.60;2.70;;;;;;;-128.00;-1.00;-1.00;97816;294;1003041;-35
2023/04/21 12:26:51;;;;;;;8.80;8.00;;;;;;;-128.00;-1.00;-1.00;97873;294;1003518;-31
2023/04/21 12:29:17;;;;;;;4.90;4.10;;;;;;;-128.00;-1.00;-1.00;97878;294;1004374;-31
2023/04/21 12:31:42;;;;;;;27.30;21.90;;;;;;;-128.00;-1.00;-1.00;97916;294;1003316;-31
2023/04/21 12:34:08;;;;;;;7.40;3.00;;;;;;;-128.00;-1.00;-1.00;97877;294;1003537;-34
2023/04/21 12:36:37;;;;;;;4.40;3.30;;;;;;;-128.00;-1.00;-1.00;97899;294;1003914;-31
2023/04/21 12:39:03;;;;;;;3.50;3.10;;;;;;;-128.00;-1.00;-1.00;97914;294;1003494;-36
2023/04/21 12:41:28;;;;;;;3.20;2.40;;;;;;;-128.00;-1.00;-1.00;97821;287;1004166;-36
2023/04/21 12:43:54;;;;;;;5.60;4.20;;;;;;;-128.00;-1.00;-1.00;97914;294;1003635;-31